Time;durP1;ratioP1;P1;durP2;ratioP2;P2;SDS_P1;SDS_P2;PMS_P1;PMS_P2;Temp;Humidity;BMP_temperature;BMP_pressure;BME280_temperature;BME280_humidity;BME280_pressure;Samples;Min_cycle;Max_cycle;Signal;HPM_P1;HPM_P2
2024/03/11 00:01:44;;;;;;;;;12.00;10.00;;;;;5.70;63.50;100143.66;112283;241;161185;-53
2024/03/11 00:04:27;;;;;;;;;17.00;12.00;;;;;5.68;63.82;100141.09;112591;244;39595;-51
2024/03/11 00:07:05;;;;;;;;;12.00;10.00;;;;;5.67;63.88;100143.33;112389;242;160909;-51
2024/03/11 00:09:44;;;;;;;;;15.00;13.00;;;;;5.66;63.82;100138.95;112577;244;39878;-53
2024/03/11 00:12:23;;;;;;;;;16.00;12.00;;;;;5.62;63.82;100139.42;112400;242;160777;-54
2024/03/11 00:15:07;;;;;;;;;15.00;13.00;;;;;5.60;63.72;100137.65;112534;244;39465;-50
2024/03/11 00:17:47;;;;;;;;;13.00;10.50;;;;;5.60;63.75;100143.91;112321;242;161015;-53
2024/03/11 00:20:27;;;;;;;;;10.75;7.00;;;;;5.58;63.76;100135.15;112444;244;39932;-54
2024/03/11 00:23:06;;;;;;;;;12.25;10.00;;;;;5.57;63.69;100139.78;112589;244;40331;-54
2024/03/11 00:25:46;;;;;;;;;8.25;6.25;;;;;5.56;63.64;100141.14;112329;241;160615;-55
2024/03/11 00:28:25;;;;;;;;;18.75;13.00;;;;;5.55;63.70;100142.65;112643;244;39485;-51
2024/03/11 00:31:01;;;;;;;;;11.25;9.50;;;;;5.53;63.78;100135.58;112344;241;160707;-51
2024/03/11 00:33:37;;;;;;;;;8.25;6.00;;;;;5.51;63.80;100136.17;112577;244;39386;-51
2024/03/11 00:36:17;;;;;;;;;16.00;11.67;;;;;5.50;63.64;100135.57;112353;241;160283;-50
2024/03/11 00:38:58;;;;;;;;;12.00;10.00;;;;;5.49;63.54;100138.28;112467;244;39544;-54
2024/03/11 00:41:46;;;;;;;;;13.75;10.75;;;;;5.48;63.52;100137.21;112423;244;40122;-54
2024/03/11 00:44:24;;;;;;;;;12.75;11.00;;;;;5.46;63.35;100123.61;112496;244;39479;-54
2024/03/11 00:46:58;;;;;;;;;13.00;9.00;;;;;5.44;63.50;100127.05;112542;244;40370;-54
2024/03/11 00:49:36;;;;;;;;;16.50;13.75;;;;;5.42;63.31;100121.89;112358;242;160684;-51
2024/03/11 00:52:19;;;;;;;;;16.33;13.33;;;;;5.41;63.42;100119.41;112504;244;40362;-51
2024/03/11 00:54:56;;;;;;;;;16.00;13.00;;;;;5.39;63.39;100113.73;112366;241;160865;-53
2024/03/11 00:57:39;;;;;;;;;14.00;9.00;;;;;5.36;63.41;100116.09;112457;244;39601;-53
2024/03/11 01:00:21;;;;;;;;;16.75;12.00;;;;;5.39;63.27;100112.11;112319;242;161264;-51
2024/03/11 01:03:01;;;;;;;;;14.00;11.00;;;;;5.38;63.10;100116.52;112461;244;39940;-52
2024/03/11 01:05:41;;;;;;;;;12.50;10.00;;;;;5.37;62.89;100114.25;112465;244;41143;-51
2024/03/11 01:08:16;;;;;;;;;15.50;12.50;;;;;5.37;62.80;100116.13;112426;244;39889;-54
2024/03/11 01:10:53;;;;;;;;;10.00;8.00;;;;;5.37;62.78;100116.59;112489;244;39393;-54
2024/03/11 01:13:34;;;;;;;;;15.50;11.00;;;;;5.36;62.80;100111.80;112354;241;160618;-53
2024/03/11 01:16:11;;;;;;;;;11.50;9.00;;;;;5.37;62.60;100112.80;112456;244;40979;-53
2024/03/11 01:18:50;;;;;;;;;10.00;8.00;;;;;5.36;62.51;100105.70;112362;242;160579;-53
2024/03/11 01:21:30;;;;;;;;;14.33;11.00;;;;;5.35;62.31;100105.61;112420;244;41168;-53
2024/03/11 01:24:10;;;;;;;;;14.00;11.00;;;;;5.34;62.26;100106.84;112311;241;160719;-51
2024/03/11 01:26:49;;;;;;;;;16.33;12.33;;;;;5.32;62.17;100103.09;112395;244;39551;-51
2024/03/11 01:29:26;;;;;;;;;13.75;10.75;;;;;5.30;62.02;100106.39;112447;244;39744;-51
2024/03/11 01:32:06;;;;;;;;;11.00;8.00;;;;;5.29;61.85;100104.95;112321;241;160531;-49
2024/03/11 01:34:44;;;;;;;;;13.00;10.00;;;;;5.26;61.88;100107.05;112490;244;41174;-52
2024/03/11 01:37:24;;;;;;;;;16.00;12.00;;;;;5.23;61.82;100104.29;112302;242;160579;-51
2024/03/11 01:40:03;;;;;;;;;10.00;8.00;;;;;5.19;61.74;100100.05;112506;244;39325;-50
2024/03/11 01:42:38;;;;;;;;;13.00;10.00;;;;;5.16;61.96;100093.50;112343;242;161744;-52
2024/03/11 01:45:17;;;;;;;;;16.00;11.50;;;;;5.15;61.74;100096.44;112516;244;39532;-54
2024/03/11 01:48:03;;;;;;;;;9.00;8.00;;;;;5.13;61.76;100098.91;112412;242;160764;-50
2024/03/11 01:50:43;;;;;;;;;12.25;9.00;;;;;5.10;61.79;100098.20;112447;244;38939;-50
2024/03/11 01:53:20;;;;;;;;;10.50;8.25;;;;;5.07;61.78;100100.08;112482;244;40586;-52
2024/03/11 01:55:57;;;;;;;;;15.33;12.00;;;;;5.07;61.71;100093.73;112331;241;160433;-52
2024/03/11 01:58:38;;;;;;;;;11.75;9.50;;;;;5.05;61.76;100088.50;112403;244;41124;-53
2024/03/11 02:01:20;;;;;;;;;13.50;11.00;;;;;5.06;61.70;100089.50;112246;241;160504;-53
2024/03/11 02:03:58;;;;;;;;;10.00;8.00;;;;;5.05;61.54;100087.70;112492;244;39406;-53
2024/03/11 02:06:34;;;;;;;;;9.00;8.50;;;;;5.03;61.47;100087.41;112279;241;161133;-53
2024/03/11 02:09:15;;;;;;;;;9.25;9.00;;;;;5.03;61.50;100086.29;112456;244;39480;-51
2024/03/11 02:11:59;;;;;;;;;12.00;9.50;;;;;5.05;61.37;100085.77;112261;240;161513;-51
2024/03/11 02:14:37;;;;;;;;;7.00;5.67;;;;;5.03;61.43;100090.05;112445;244;41249;-50
2024/03/11 02:17:17;;;;;;;;;11.75;9.00;;;;;5.03;61.32;100085.61;112438;244;40078;-50
2024/03/11 02:19:53;;;;;;;;;12.75;9.75;;;;;5.01;61.35;100088.45;112313;241;160502;-51
2024/03/11 02:22:34;;;;;;;;;10.75;8.50;;;;;5.01;61.35;100085.03;112424;244;40317;-51
2024/03/11 02:25:09;;;;;;;;;12.75;9.75;;;;;5.00;61.23;100089.77;112292;241;160397;-51
2024/03/11 02:27:48;;;;;;;;;13.33;10.00;;;;;5.00;61.26;100087.30;112411;244;39963;-51
2024/03/11 02:30:32;;;;;;;;;13.75;11.00;;;;;4.99;61.22;100086.90;112362;241;161236;-50
2024/03/11 02:33:14;;;;;;;;;14.00;11.00;;;;;4.97;61.28;100085.44;112400;244;40399;-53
2024/03/11 02:35:56;;;;;;;;;14.25;11.25;;;;;4.97;61.25;100082.84;112334;240;161036;-53
2024/03/11 02:38:33;;;;;;;;;12.00;9.00;;;;;4.96;61.28;100085.02;112436;244;41192;-54
2024/03/11 02:41:16;;;;;;;;;9.75;7.00;;;;;4.97;61.21;100084.58;112485;244;39209;-54
2024/03/11 02:43:53;;;;;;;;;13.00;9.00;;;;;4.96;61.32;100081.16;112317;241;160631;-51
2024/03/11 02:46:31;;;;;;;;;24.75;15.00;;;;;4.96;61.25;100079.73;112504;244;39412;-51
2024/03/11 02:49:14;;;;;;;;;12.75;10.00;;;;;4.95;61.27;100073.73;112352;241;160725;-53
2024/03/11 02:51:58;;;;;;;;;12.00;9.00;;;;;4.94;61.30;100064.70;112453;244;41248;-52
2024/03/11 02:54:37;;;;;;;;;21.00;16.00;;;;;4.94;61.30;100063.86;112332;244;160421;-53
2024/03/11 02:57:19;;;;;;;;;13.00;11.00;;;;;4.94;61.27;100063.73;112434;244;40523;-54
2024/03/11 02:59:57;;;;;;;;;16.75;12.50;;;;;4.93;61.27;100063.79;112322;244;160915;-53
2024/03/11 03:02:34;;;;;;;;;15.67;11.00;;;;;4.92;61.25;100072.95;112414;244;40390;-53
2024/03/11 03:05:13;;;;;;;;;10.00;8.00;;;;;4.93;61.16;100074.13;112416;244;40621;-53
2024/03/11 03:07:50;;;;;;;;;16.75;12.00;;;;;4.92;61.16;100073.19;112292;241;160488;-55
2024/03/11 03:10:24;;;;;;;;;10.50;8.00;;;;;4.91;61.32;100076.17;112384;244;40758;-55
2024/03/11 03:13:00;;;;;;;;;11.00;8.75;;;;;4.91;61.17;100077.06;112324;241;160524;-50
2024/03/11 03:15:38;;;;;;;;;6.50;5.00;;;;;4.90;61.25;100069.33;112465;244;39863;-50
2024/03/11 03:18:14;;;;;;;;;13.25;10.25;;;;;4.87;61.25;100066.21;112366;241;160884;-53
2024/03/11 03:20:51;;;;;;;;;17.75;13.00;;;;;4.85;61.20;100059.61;112443;244;39259;-54
2024/03/11 03:23:25;;;;;;;;;13.00;11.00;;;;;4.85;61.27;100054.13;112542;244;39874;-52
2024/03/11 03:26:05;;;;;;;;;12.25;8.50;;;;;4.83;61.27;100062.39;112289;241;160580;-52
2024/03/11 03:28:44;;;;;;;;;10.00;8.00;;;;;4.83;61.35;100059.56;112478;243;39565;-50
2024/03/11 03:31:27;;;;;;;;;13.00;10.00;;;;;4.82;61.17;100058.97;112303;241;161755;-50
2024/03/11 03:34:05;;;;;;;;;10.75;9.00;;;;;4.80;61.31;100060.40;112496;244;39183;-50
2024/03/11 03:36:45;;;;;;;;;15.00;12.00;;;;;4.80;61.23;100059.68;112297;241;160516;-50
2024/03/11 03:39:20;;;;;;;;;14.00;10.00;;;;;4.77;61.36;100056.96;112539;244;39834;-51
2024/03/11 03:41:58;;;;;;;;;9.50;7.75;;;;;4.76;61.35;100060.58;112434;241;160817;-50
2024/03/11 03:44:36;;;;;;;;;14.50;10.00;;;;;4.76;61.39;100062.59;112446;244;40435;-50
2024/03/11 03:47:18;;;;;;;;;11.50;9.25;;;;;4.75;61.33;100064.98;112537;244;39674;-50
2024/03/11 03:49:54;;;;;;;;;11.00;9.00;;;;;4.74;61.34;100065.23;112340;241;160412;-50
2024/03/11 03:52:33;;;;;;;;;13.33;11.00;;;;;4.74;61.30;100073.48;112441;244;40447;-50
2024/03/11 03:55:11;;;;;;;;;10.00;7.00;;;;;4.73;61.32;100068.58;112304;241;161344;-51
2024/03/11 03:57:53;;;;;;;;;14.50;10.50;;;;;4.71;61.37;100070.41;112486;244;39741;-51
2024/03/11 04:00:35;;;;;;;;;9.00;7.00;;;;;4.70;61.46;100068.04;112366;241;160705;-54
2024/03/11 04:03:11;;;;;;;;;15.00;12.00;;;;;4.69;61.40;100058.80;112508;244;40219;-50
2024/03/11 04:05:48;;;;;;;;;17.00;14.00;;;;;4.68;61.37;100060.77;112461;241;160779;-50
2024/03/11 04:08:25;;;;;;;;;16.00;12.00;;;;;4.67;61.42;100064.80;112496;244;41655;-53
2024/03/11 04:11:01;;;;;;;;;18.00;13.50;;;;;4.65;61.47;100053.55;112489;244;41404;-54
2024/03/11 04:13:43;;;;;;;;;16.67;13.00;;;;;4.64;61.53;100055.84;112351;244;160730;-52
2024/03/11 04:16:21;;;;;;;;;8.50;7.00;;;;;4.62;61.63;100051.88;112578;244;39469;-53
2024/03/11 04:19:02;;;;;;;;;12.00;9.00;;;;;4.60;61.78;100058.73;112399;244;160433;-50
2024/03/11 04:21:45;;;;;;;;;11.25;9.25;;;;;4.60;61.69;100059.12;112538;244;39097;-50
2024/03/11 04:24:27;;;;;;;;;9.67;7.67;;;;;4.57;61.59;100061.01;112403;241;160797;-53
2024/03/11 04:27:11;;;;;;;;;12.00;8.50;;;;;4.56;61.70;100073.59;112344;243;41058;-53
2024/03/11 04:29:53;;;;;;;;;9.50;7.25;;;;;4.55;61.73;100069.75;112670;241;160612;-50
2024/03/11 04:32:39;;;;;;;;;8.67;6.67;;;;;4.53;61.84;100075.38;112414;244;40869;-50
2024/03/11 04:35:18;;;;;;;;;15.00;12.00;;;;;4.51;61.78;100077.27;112429;244;39579;-54
2024/03/11 04:37:59;;;;;;;;;17.75;14.00;;;;;4.51;61.87;100072.85;112278;243;160378;-50
2024/03/11 04:40:37;;;;;;;;;11.00;9.00;;;;;4.49;61.92;100067.36;112434;244;38920;-50
2024/03/11 04:43:17;;;;;;;;;8.50;7.00;;;;;4.48;61.88;100063.04;112327;242;160552;-52
2024/03/11 04:45:51;;;;;;;;;13.50;11.25;;;;;4.47;61.98;100065.11;112397;244;39488;-53
2024/03/11 04:48:29;;;;;;;;;10.75;7.75;;;;;4.45;61.96;100055.55;112283;243;160298;-53
2024/03/11 04:51:06;;;;;;;;;16.50;11.50;;;;;4.44;62.00;100063.69;112442;244;40135;-53
2024/03/11 04:53:43;;;;;;;;;14.00;11.33;;;;;4.42;62.14;100063.30;112514;244;40976;-51
2024/03/11 04:56:24;;;;;;;;;12.00;10.00;;;;;4.41;62.16;100060.57;112426;244;39837;-50
2024/03/11 04:59:04;;;;;;;;;7.00;6.00;;;;;4.40;62.24;100056.89;112504;243;39377;-50
2024/03/11 05:01:45;;;;;;;;;10.00;9.00;;;;;4.39;62.36;100054.91;112275;241;160366;-50
2024/03/11 05:04:25;;;;;;;;;9.50;8.00;;;;;4.38;62.41;100054.11;112513;243;41007;-50
2024/03/11 05:07:02;;;;;;;;;10.00;8.00;;;;;4.35;62.54;100057.21;112286;242;160269;-50
2024/03/11 05:09:36;;;;;;;;;10.00;9.00;;;;;4.32;62.71;100058.30;112516;244;40659;-53
2024/03/11 05:12:12;;;;;;;;;13.00;12.00;;;;;4.29;62.89;100059.17;112349;241;160487;-53
2024/03/11 05:14:46;;;;;;;;;13.00;10.00;;;;;4.28;62.97;100061.05;112440;244;39240;-53
2024/03/11 05:17:23;;;;;;;;;15.00;11.00;;;;;4.26;63.06;100053.59;112454;244;39586;-53
2024/03/11 05:20:05;;;;;;;;;12.00;10.00;;;;;4.26;63.01;100069.59;112315;244;160551;-50
2024/03/11 05:22:44;;;;;;;;;13.25;11.00;;;;;4.23;63.18;100060.81;112426;244;39843;-50
2024/03/11 05:25:26;;;;;;;;;12.00;9.00;;;;;4.24;63.17;100064.19;112318;241;161217;-50
2024/03/11 05:28:05;;;;;;;;;11.00;9.00;;;;;4.23;63.21;100065.04;112445;244;40986;-50
2024/03/11 05:30:43;;;;;;;;;14.25;10.50;;;;;4.24;63.03;100064.70;112275;241;160513;-50
2024/03/11 05:33:20;;;;;;;;;10.50;8.00;;;;;4.23;63.18;100068.27;112407;244;40480;-49
2024/03/11 05:35:59;;;;;;;;;11.00;9.00;;;;;4.22;63.34;100067.48;112309;241;160353;-50
2024/03/11 05:38:43;;;;;;;;;11.25;10.00;;;;;4.22;63.14;100074.64;112418;244;38893;-50
2024/03/11 05:41:17;;;;;;;;;18.00;13.00;;;;;4.22;63.34;100069.87;112433;244;39747;-51
2024/03/11 05:43:54;;;;;;;;;15.00;11.00;;;;;4.23;63.24;100069.73;112329;242;160653;-50
2024/03/11 05:46:32;;;;;;;;;12.75;10.00;;;;;4.21;63.32;100071.77;112489;244;40344;-50
2024/03/11 05:49:13;;;;;;;;;15.00;10.33;;;;;4.19;63.46;100069.61;112342;242;161035;-49
2024/03/11 05:51:47;;;;;;;;;15.00;12.00;;;;;4.20;63.48;100070.81;112422;244;40370;-49
2024/03/11 05:54:24;;;;;;;;;17.00;12.00;;;;;4.21;63.45;100071.55;112403;241;160779;-53
2024/03/11 05:57:04;;;;;;;;;11.25;9.00;;;;;4.22;63.66;100075.61;112578;243;39400;-52
2024/03/11 05:59:42;;;;;;;;;14.67;11.67;;;;;4.21;64.09;100071.80;112821;243;39041;-50
2024/03/11 06:02:19;;;;;;;;;13.00;10.50;;;;;4.18;64.17;100074.12;112464;244;40966;-49
2024/03/11 06:05:02;;;;;;;;;12.00;9.00;;;;;4.16;64.45;100083.42;112445;244;39668;-50
2024/03/11 06:07:46;;;;;;;;;9.50;7.75;;;;;4.15;64.41;100074.09;112263;241;160508;-50
2024/03/11 06:10:23;;;;;;;;;15.00;11.00;;;;;4.17;64.78;100085.64;112430;244;40872;-50
2024/03/11 06:12:59;;;;;;;;;14.50;10.00;;;;;4.16;64.71;100086.43;112292;242;160472;-50
2024/03/11 06:15:37;;;;;;;;;12.67;11.33;;;;;4.14;64.90;100082.71;112351;244;39961;-51
2024/03/11 06:18:17;;;;;;;;;12.00;9.50;;;;;4.13;64.76;100088.58;112323;242;160757;-51
2024/03/11 06:20:54;;;;;;;;;14.00;11.00;;;;;4.14;64.90;100084.55;112380;244;39185;-50
2024/03/11 06:23:33;;;;;;;;;16.00;13.25;;;;;4.13;65.04;100097.29;112411;244;40621;-52
2024/03/11 06:26:08;;;;;;;;;8.33;6.33;;;;;4.13;65.16;100092.48;112289;242;160398;-53
2024/03/11 06:28:47;;;;;;;;;9.25;6.50;;;;;4.16;65.34;100097.83;112424;244;39742;-51
2024/03/11 06:31:28;;;;;;;;;11.00;8.00;;;;;4.13;65.39;100104.77;112294;241;160290;-52
2024/03/11 06:34:06;;;;;;;;;13.33;10.00;;;;;4.11;65.46;100098.70;112455;243;39230;-49
2024/03/11 06:36:42;;;;;;;;;12.75;8.00;;;;;4.11;65.73;100100.60;112379;241;160706;-50
2024/03/11 06:39:26;;;;;;;;;11.00;9.00;;;;;4.08;65.73;100098.73;112078;243;513873;-54
2024/03/11 06:42:03;;;;;;;;;19.00;14.00;;;;;4.09;66.02;100103.02;112312;241;160719;-52
2024/03/11 06:44:49;;;;;;;;;21.00;15.00;;;;;4.08;66.07;100099.27;112478;243;40095;-50
2024/03/11 06:47:34;;;;;;;;;11.25;8.75;;;;;4.06;66.16;100101.95;112419;244;40614;-50
2024/03/11 06:50:12;;;;;;;;;13.00;11.00;;;;;4.03;66.29;100108.48;112270;243;161043;-53
2024/03/11 06:52:55;;;;;;;;;16.00;14.00;;;;;4.04;66.15;100102.11;112480;244;39282;-51
2024/03/11 06:55:36;;;;;;;;;10.00;7.67;;;;;4.04;66.28;100111.46;112308;242;160868;-56
2024/03/11 06:58:15;;;;;;;;;16.25;11.00;;;;;4.02;66.39;100101.26;112476;243;40158;-53
2024/03/11 07:00:51;;;;;;;;;11.00;9.00;;;;;4.02;66.37;100115.55;112268;242;161283;-54
2024/03/11 07:03:29;;;;;;;;;16.25;10.50;;;;;4.02;66.27;100109.10;112423;244;39581;-50
2024/03/11 07:06:07;;;;;;;;;11.50;7.75;;;;;4.04;66.14;100103.38;112295;241;161034;-50
2024/03/11 07:08:48;;;;;;;;;9.00;7.00;;;;;4.07;66.36;100108.02;112474;243;39529;-52
2024/03/11 07:11:24;;;;;;;;;11.75;9.00;;;;;4.06;66.76;100106.91;112463;244;40234;-52
2024/03/11 07:14:03;;;;;;;;;14.00;10.25;;;;;4.06;67.25;100107.44;112301;242;161203;-52
2024/03/11 07:16:43;;;;;;;;;13.33;10.67;;;;;4.04;67.36;100109.95;112436;244;39232;-52
2024/03/11 07:19:25;;;;;;;;;14.00;11.00;;;;;4.05;67.58;100117.19;112272;242;164671;-50
2024/03/11 07:22:08;;;;;;;;;8.00;6.75;;;;;4.07;67.89;100115.70;112451;244;39567;-50
2024/03/11 07:24:44;;;;;;;;;17.00;12.00;;;;;4.08;67.89;100114.18;112350;242;160435;-53
2024/03/11 07:27:27;;;;;;;;;11.00;8.25;;;;;4.08;68.14;100113.70;112431;243;39879;-52
2024/03/11 07:30:02;;;;;;;;;9.75;7.75;;;;;4.10;68.20;100112.74;112362;241;160665;-50
2024/03/11 07:32:50;;;;;;;;;14.00;10.00;;;;;4.11;68.55;100124.95;112602;243;40885;-52
2024/03/11 07:35:32;;;;;;;;;13.00;8.00;;;;;4.09;68.87;100121.73;112803;243;38973;-53
2024/03/11 07:38:10;;;;;;;;;16.00;13.00;;;;;4.07;68.98;100129.77;112255;243;162412;-50
2024/03/11 07:40:47;;;;;;;;;13.00;10.00;;;;;4.03;69.69;100125.05;112507;244;39726;-50
2024/03/11 07:43:34;;;;;;;;;10.00;7.00;;;;;4.02;69.52;100127.17;112360;241;160607;-49
2024/03/11 07:46:12;;;;;;;;;12.00;9.00;;;;;4.00;69.62;100130.40;112515;244;39485;-51
2024/03/11 07:48:53;;;;;;;;;11.75;8.75;;;;;3.98;70.47;100139.61;112359;241;160547;-50
2024/03/11 07:51:35;;;;;;;;;10.25;7.00;;;;;3.92;70.47;100141.48;112614;243;39546;-49
2024/03/11 07:54:11;;;;;;;;;11.00;9.00;;;;;3.94;70.87;100142.51;112584;242;161410;-50
2024/03/11 07:56:46;;;;;;;;;16.75;13.25;;;;;3.99;71.66;100139.17;112393;244;40977;-51
2024/03/11 07:59:32;;;;;;;;;7.25;6.00;;;;;3.99;71.51;100139.91;112529;244;40925;-50
2024/03/11 08:02:08;;;;;;;;;12.75;9.00;;;;;4.00;72.05;100140.46;112366;241;160377;-50
2024/03/11 08:04:44;;;;;;;;;17.00;14.00;;;;;3.95;72.30;100146.56;112791;243;40001;-50
2024/03/11 08:07:22;;;;;;;;;14.00;11.25;;;;;3.90;72.23;100141.84;112388;241;160707;-51
2024/03/11 08:10:03;;;;;;;;;9.50;7.50;;;;;3.98;73.07;100140.90;112699;243;40140;-50
2024/03/11 08:12:39;;;;;;;;;11.00;8.00;;;;;4.05;72.89;100144.08;112546;241;161775;-51
2024/03/11 08:15:15;;;;;;;;;10.25;9.00;;;;;4.10;72.54;100143.45;112604;243;40389;-53
2024/03/11 08:17:53;;;;;;;;;15.00;12.67;;;;;4.17;72.33;100145.58;112797;243;39595;-52
2024/03/11 08:20:33;;;;;;;;;14.00;10.50;;;;;4.16;72.88;100145.58;112482;243;38941;-53
2024/03/11 08:23:10;;;;;;;;;14.00;10.75;;;;;4.16;72.82;100147.55;112769;243;39744;-51
2024/03/11 08:25:47;;;;;;;;;19.00;13.00;;;;;4.27;72.92;100148.64;112405;243;161092;-51
2024/03/11 08:28:27;;;;;;;;;11.75;9.00;;;;;4.25;73.04;100145.50;112464;244;39170;-51
2024/03/11 08:31:07;;;;;;;;;13.00;11.00;;;;;4.23;73.21;100144.63;112302;241;161507;-51
2024/03/11 08:33:43;;;;;;;;;19.50;15.00;;;;;4.36;73.04;100141.65;112712;243;39809;-51
2024/03/11 08:36:17;;;;;;;;;17.00;13.00;;;;;4.43;73.21;100140.40;112567;243;160555;-52
2024/03/11 08:38:58;;;;;;;;;12.00;10.00;;;;;4.29;73.21;100144.38;112583;243;39278;-54
2024/03/11 08:41:34;;;;;;;;;17.25;13.50;;;;;4.30;73.05;100144.55;112755;243;39608;-54
2024/03/11 08:44:15;;;;;;;;;15.50;11.75;;;;;4.29;72.81;100146.17;112317;242;161293;-54
2024/03/11 08:46:56;;;;;;;;;14.00;9.00;;;;;4.31;73.00;100141.65;112380;244;42856;-54
2024/03/11 08:49:38;;;;;;;;;10.00;8.67;;;;;4.35;72.86;100140.90;112311;245;161240;-53
2024/03/11 08:52:17;;;;;;;;;16.00;12.67;;;;;4.36;72.47;100139.21;112431;244;39792;-53
2024/03/11 08:54:55;;;;;;;;;16.00;12.50;;;;;4.39;72.38;100134.08;112373;241;160775;-53
2024/03/11 08:57:37;;;;;;;;;14.00;11.00;;;;;4.46;72.32;100137.59;112479;244;40286;-53
2024/03/11 09:00:16;;;;;;;;;13.00;10.33;;;;;4.47;72.31;100135.13;112387;241;160766;-53
2024/03/11 09:02:56;;;;;;;;;12.50;10.50;;;;;4.46;72.28;100131.86;112644;243;41363;-50
2024/03/11 09:05:41;;;;;;;;;12.00;9.00;;;;;4.59;72.11;100137.29;112836;243;40278;-50
2024/03/11 09:08:15;;;;;;;;;15.75;13.00;;;;;4.75;72.08;100141.14;112338;241;161683;-51
2024/03/11 09:10:52;;;;;;;;;14.00;11.50;;;;;4.84;71.81;100141.46;112437;243;40193;-52
2024/03/11 09:13:29;;;;;;;;;8.67;7.67;;;;;4.98;71.80;100139.31;112329;242;161625;-54
2024/03/11 09:16:05;;;;;;;;;16.00;12.00;;;;;5.14;71.54;100144.55;112414;244;39617;-55
2024/03/11 09:18:47;;;;;;;;;14.50;10.00;;;;;5.32;71.10;100144.77;112350;241;160937;-51
2024/03/11 09:21:31;;;;;;;;;21.00;14.00;;;;;5.40;70.58;100150.12;112474;243;39576;-50
2024/03/11 09:24:05;;;;;;;;;16.00;13.00;;;;;5.38;70.39;100148.23;112300;242;160990;-53
2024/03/11 09:26:45;;;;;;;;;12.50;10.00;;;;;5.38;70.36;100146.83;112393;244;40557;-53
2024/03/11 09:29:22;;;;;;;;;12.00;9.75;;;;;5.41;70.30;100145.77;112445;244;39223;-53
2024/03/11 09:32:01;;;;;;;;;19.33;15.33;;;;;5.51;70.44;100149.95;112252;241;160298;-54
2024/03/11 09:34:38;;;;;;;;;12.00;10.67;;;;;5.48;70.17;100144.81;112485;244;38986;-51
2024/03/11 09:37:16;;;;;;;;;15.00;11.67;;;;;5.43;70.08;100148.80;112383;241;160751;-51
2024/03/11 09:39:57;;;;;;;;;15.75;11.50;;;;;5.28;70.20;100147.46;112777;243;39543;-50
2024/03/11 09:42:32;;;;;;;;;13.00;10.00;;;;;5.21;70.53;100147.73;112607;241;160828;-50
2024/03/11 09:45:10;;;;;;;;;17.00;13.33;;;;;5.14;70.85;100150.55;112515;244;40456;-54
2024/03/11 09:47:51;;;;;;;;;14.00;11.00;;;;;5.15;71.17;100148.11;112603;244;39562;-54
2024/03/11 09:50:34;;;;;;;;;11.50;9.00;;;;;5.23;71.19;100149.71;112524;244;39756;-53
2024/03/11 09:53:13;;;;;;;;;21.67;17.00;;;;;5.24;71.59;100146.01;112542;244;39846;-50
2024/03/11 09:55:56;;;;;;;;;15.00;11.00;;;;;5.24;71.73;100143.60;112309;241;161276;-51
2024/03/11 09:58:35;;;;;;;;;14.50;11.75;;;;;5.27;72.12;100143.34;112482;244;41533;-55
2024/03/11 10:01:11;;;;;;;;;19.00;15.00;;;;;5.29;72.03;100139.19;112278;241;160561;-55
2024/03/11 10:03:49;;;;;;;;;19.25;13.25;;;;;5.31;72.16;100140.14;112701;243;38908;-54
2024/03/11 10:06:27;;;;;;;;;16.00;11.75;;;;;5.21;72.52;100138.64;112623;241;160853;-53
2024/03/11 10:09:18;;;;;;;;;17.33;12.67;;;;;5.12;72.73;100140.13;112407;244;40534;-53
2024/03/11 10:12:09;;;;;;;;;15.00;11.00;;;;;5.01;72.99;100137.30;112419;244;40945;-54
2024/03/11 10:14:52;;;;;;;;;16.00;12.00;;;;;5.01;73.24;100137.16;112477;243;39570;-51
2024/03/11 10:17:43;;;;;;;;;16.00;11.25;;;;;5.01;73.55;100140.78;112486;244;39907;-51
2024/03/11 10:20:34;;;;;;;;;15.75;12.00;;;;;4.95;73.92;100136.97;112351;244;161283;-50
2024/03/11 10:23:18;;;;;;;;;19.00;14.67;;;;;4.88;74.53;100143.89;112513;244;39480;-53
2024/03/11 10:26:17;;;;;;;;;18.25;14.00;;;;;4.80;75.06;100143.11;112302;240;160597;-54
2024/03/11 10:29:01;;;;;;;;;15.25;12.00;;;;;4.71;75.83;100133.02;112478;244;41009;-54
2024/03/11 10:31:41;;;;;;;;;16.00;13.00;;;;;4.68;76.27;100138.35;112313;241;161482;-54
2024/03/11 10:34:20;;;;;;;;;13.00;11.00;;;;;4.58;76.93;100137.56;112784;243;39511;-52
2024/03/11 10:37:02;;;;;;;;;13.00;10.75;;;;;4.56;76.61;100142.48;112553;241;161259;-52
2024/03/11 10:39:42;;;;;;;;;20.00;13.67;;;;;4.60;76.80;100145.27;112417;243;39284;-52
2024/03/11 10:42:32;;;;;;;;;18.50;14.00;;;;;4.67;76.91;100144.45;112305;241;162207;-52
2024/03/11 10:45:14;;;;;;;;;14.00;11.00;;;;;4.72;77.46;100143.27;112416;244;39533;-53
2024/03/11 10:47:49;;;;;;;;;12.75;9.50;;;;;4.77;77.26;100137.07;112437;244;39758;-51
2024/03/11 10:50:28;;;;;;;;;16.67;13.00;;;;;4.76;77.76;100136.77;112355;241;161619;-51
2024/03/11 10:53:14;;;;;;;;;24.00;19.00;;;;;4.75;78.11;100135.80;112501;243;41198;-53
2024/03/11 10:56:07;;;;;;;;;17.00;12.00;;;;;4.74;78.53;100133.39;112312;240;161193;-52
2024/03/11 10:58:50;;;;;;;;;16.50;12.75;;;;;4.80;78.21;100126.73;112468;244;39588;-51
2024/03/11 11:01:34;;;;;;;;;14.00;11.00;;;;;4.82;77.81;100120.95;112303;241;160653;-51
2024/03/11 11:04:14;;;;;;;;;12.67;8.67;;;;;4.87;77.82;100123.64;112462;244;39836;-55
2024/03/11 11:06:51;;;;;;;;;21.75;15.00;;;;;4.90;77.66;100123.86;112336;241;161186;-55
2024/03/11 11:09:27;;;;;;;;;21.75;15.75;;;;;4.87;77.69;100125.77;112509;243;39583;-54
2024/03/11 11:12:08;;;;;;;;;9.00;7.25;;;;;4.92;78.01;100123.17;112458;244;39529;-54
2024/03/11 11:14:50;;;;;;;;;13.50;10.25;;;;;4.94;77.77;100125.05;112414;244;39935;-51
2024/03/11 11:17:28;;;;;;;;;16.75;13.00;;;;;4.94;77.54;100124.52;112431;244;39578;-51
2024/03/11 11:20:23;;;;;;;;;21.00;13.50;;;;;5.01;77.48;100121.77;112330;242;161430;-51
2024/03/11 11:23:10;;;;;;;;;11.33;9.33;;;;;5.09;77.45;100131.14;112477;244;40513;-52
2024/03/11 11:25:55;;;;;;;;;15.75;11.25;;;;;5.02;77.63;100135.23;112308;242;160525;-53
2024/03/11 11:28:40;;;;;;;;;18.00;15.00;;;;;5.01;77.41;100128.97;112477;244;40141;-54
2024/03/11 11:31:27;;;;;;;;;13.00;10.00;;;;;5.09;77.24;100128.44;112347;241;160974;-55
2024/03/11 11:34:12;;;;;;;;;18.00;13.00;;;;;5.12;77.69;100132.23;112713;243;39696;-52
2024/03/11 11:37:06;;;;;;;;;14.33;11.33;;;;;5.10;77.76;100130.27;112538;241;162705;-52
2024/03/11 11:39:51;;;;;;;;;16.50;12.00;;;;;5.07;77.90;100123.67;112676;243;40262;-54
2024/03/11 11:42:40;;;;;;;;;25.00;18.50;;;;;5.04;77.79;100119.50;112635;241;162791;-54
2024/03/11 11:45:35;;;;;;;;;15.00;12.00;;;;;5.11;77.87;100119.52;112552;243;39145;-53
2024/03/11 11:48:31;;;;;;;;;16.00;13.00;;;;;5.09;78.25;100120.04;112689;241;161682;-50
2024/03/11 11:51:06;;;;;;;;;17.00;14.00;;;;;5.07;78.28;100115.61;112562;243;40240;-50
2024/03/11 11:53:48;;;;;;;;;15.00;11.00;;;;;5.08;78.38;100113.73;112865;243;39448;-51
2024/03/11 11:56:27;;;;;;;;;20.75;15.00;;;;;5.02;78.82;100114.71;112310;242;161221;-51
2024/03/11 11:59:10;;;;;;;;;15.00;12.25;;;;;4.91;78.81;100115.40;112648;244;40005;-51
2024/03/11 12:02:00;;;;;;;;;13.00;10.00;;;;;4.82;79.10;100111.68;112387;241;162315;-60
2024/03/11 12:04:38;;;;;;;;;15.75;12.00;;;;;4.78;79.68;100120.35;112840;243;39585;-50
2024/03/11 12:07:22;;;;;;;;;15.67;11.00;;;;;4.72;80.00;100111.36;112526;243;162610;-50
2024/03/11 12:10:04;;;;;;;;;25.00;18.75;;;;;4.67;80.01;100114.30;112723;243;39976;-50
2024/03/11 12:12:52;;;;;;;;;15.50;10.50;;;;;4.68;80.51;100113.40;112592;241;161580;-52
2024/03/11 12:15:38;;;;;;;;;15.75;12.25;;;;;4.67;80.60;100115.03;112496;243;39587;-50